sensor_id;sensor_type;location;lat;lon;timestamp;temperature;humidity
12817;DHT22;6473;51.552;6.716;2024-03-23T00:53:31;8.20;99.90
12817;DHT22;6473;51.552;6.716;2024-03-23T00:55:59;6.80;99.90
12817;DHT22;6473;51.552;6.716;2024-03-23T00:58:25;6.80;99.90
12817;DHT22;6473;51.552;6.716;2024-03-23T01:00:52;6.80;99.90
12817;DHT22;6473;51.552;6.716;2024-03-23T01:03:18;7.90;99.90
12817;DHT22;6473;51.552;6.716;2024-03-23T01:05:44;6.70;99.90
12817;DHT22;6473;51.552;6.716;2024-03-23T01:08:10;6.70;99.90
12817;DHT22;6473;51.552;6.716;2024-03-23T01:10:38;6.60;99.90
12817;DHT22;6473;51.552;6.716;2024-03-23T01:13:04;7.60;99.90
12817;DHT22;6473;51.552;6.716;2024-03-23T01:15:31;6.50;99.90
12817;DHT22;6473;51.552;6.716;2024-03-23T01:17:57;7.70;99.90
12817;DHT22;6473;51.552;6.716;2024-03-23T01:20:24;8.10;99.90
12817;DHT22;6473;51.552;6.716;2024-03-23T01:22:51;6.50;99.90
12817;DHT22;6473;51.552;6.716;2024-03-23T01:25:16;6.50;99.90
12817;DHT22;6473;51.552;6.716;2024-03-23T01:27:44;8.30;99.90
12817;DHT22;6473;51.552;6.716;2024-03-23T01:30:10;8.30;99.90
12817;DHT22;6473;51.552;6.716;2024-03-23T01:32:39;6.30;97.00
12817;DHT22;6473;51.552;6.716;2024-03-23T01:35:05;6.30;99.90
12817;DHT22;6473;51.552;6.716;2024-03-23T01:37:32;6.30;99.90
12817;DHT22;6473;51.552;6.716;2024-03-23T01:39:58;6.40;99.90
12817;DHT22;6473;51.552;6.716;2024-03-23T01:42:24;6.30;99.90
12817;DHT22;6473;51.552;6.716;2024-03-23T01:44:52;6.30;99.90
12817;DHT22;6473;51.552;6.716;2024-03-23T01:47:19;6.30;99.90
12817;DHT22;6473;51.552;6.716;2024-03-23T01:49:45;8.00;99.90
12817;DHT22;6473;51.552;6.716;2024-03-23T01:52:11;6.20;99.90
12817;DHT22;6473;51.552;6.716;2024-03-23T01:54:38;6.20;99.90
12817;DHT22;6473;51.552;6.716;2024-03-23T01:57:05;6.10;99.90
12817;DHT22;6473;51.552;6.716;2024-03-23T01:59:31;8.30;99.90
12817;DHT22;6473;51.552;6.716;2024-03-23T02:02:00;6.10;99.90
12817;DHT22;6473;51.552;6.716;2024-03-23T02:04:27;6.20;99.90
12817;DHT22;6473;51.552;6.716;2024-03-23T02:06:54;6.30;99.90
12817;DHT22;6473;51.552;6.716;2024-03-23T02:09:20;6.40;99.90
12817;DHT22;6473;51.552;6.716;2024-03-23T02:11:47;6.40;99.90
12817;DHT22;6473;51.552;6.716;2024-03-23T02:14:12;6.30;99.90
12817;DHT22;6473;51.552;6.716;2024-03-23T02:16:39;6.10;99.90
12817;DHT22;6473;51.552;6.716;2024-03-23T02:19:06;6.30;99.90
12817;DHT22;6473;51.552;6.716;2024-03-23T02:21:33;6.30;99.90
12817;DHT22;6473;51.552;6.716;2024-03-23T02:24:01;6.30;99.90
12817;DHT22;6473;51.552;6.716;2024-03-23T02:26:28;6.30;99.90
12817;DHT22;6473;51.552;6.716;2024-03-23T02:28:53;6.30;99.90
12817;DHT22;6473;51.552;6.716;2024-03-23T02:31:20;6.30;99.90
12817;DHT22;6473;51.552;6.716;2024-03-23T02:33:46;6.20;99.90
12817;DHT22;6473;51.552;6.716;2024-03-23T02:36:13;6.20;99.90
12817;DHT22;6473;51.552;6.716;2024-03-23T02:38:39;6.20;99.90
12817;DHT22;6473;51.552;6.716;2024-03-23T02:41:07;6.20;99.90
12817;DHT22;6473;51.552;6.716;2024-03-23T02:43:33;6.20;99.90
12817;DHT22;6473;51.552;6.716;2024-03-23T02:45:59;6.20;99.90
12817;DHT22;6473;51.552;6.716;2024-03-23T02:48:26;6.20;99.90
12817;DHT22;6473;51.552;6.716;2024-03-23T02:50:52;6.30;99.90
12817;DHT22;6473;51.552;6.716;2024-03-23T02:53:19;7.00;99.90
12817;DHT22;6473;51.552;6.716;2024-03-23T02:55:45;6.20;99.90
12817;DHT22;6473;51.552;6.716;2024-03-23T02:58:13;6.40;99.90
12817;DHT22;6473;51.552;6.716;2024-03-23T03:00:39;6.10;99.90
12817;DHT22;6473;51.552;6.716;2024-03-23T03:03:06;6.10;99.90
12817;DHT22;6473;51.552;6.716;2024-03-23T03:05:32;8.60;99.90
12817;DHT22;6473;51.552;6.716;2024-03-23T03:07:59;6.10;99.90
12817;DHT22;6473;51.552;6.716;2024-03-23T03:10:25;9.30;99.90
12817;DHT22;6473;51.552;6.716;2024-03-23T03:12:52;6.00;99.90
12817;DHT22;6473;51.552;6.716;2024-03-23T03:15:19;6.80;99.90
12817;DHT22;6473;51.552;6.716;2024-03-23T03:17:46;6.00;99.90
12817;DHT22;6473;51.552;6.716;2024-03-23T03:20:12;6.00;99.90
12817;DHT22;6473;51.552;6.716;2024-03-23T03:22:40;5.90;99.90
12817;DHT22;6473;51.552;6.716;2024-03-23T03:25:06;6.00;99.90
12817;DHT22;6473;51.552;6.716;2024-03-23T03:27:34;6.00;99.90
12817;DHT22;6473;51.552;6.716;2024-03-23T03:30:00;6.10;99.90
12817;DHT22;6473;51.552;6.716;2024-03-23T03:32:29;6.10;99.90
12817;DHT22;6473;51.552;6.716;2024-03-23T03:34:55;6.10;99.90
12817;DHT22;6473;51.552;6.716;2024-03-23T03:37:22;6.00;99.90
12817;DHT22;6473;51.552;6.716;2024-03-23T03:39:48;5.90;99.90
12817;DHT22;6473;51.552;6.716;2024-03-23T03:42:15;7.10;99.90
12817;DHT22;6473;51.552;6.716;2024-03-23T03:44:41;5.90;99.90
12817;DHT22;6473;51.552;6.716;2024-03-23T03:47:07;5.90;99.90
12817;DHT22;6473;51.552;6.716;2024-03-23T03:49:35;6.00;99.90
12817;DHT22;6473;51.552;6.716;2024-03-23T03:52:02;6.00;99.90
12817;DHT22;6473;51.552;6.716;2024-03-23T03:54:28;6.00;99.90
12817;DHT22;6473;51.552;6.716;2024-03-23T03:56:54;7.50;99.90
12817;DHT22;6473;51.552;6.716;2024-03-23T03:59:20;6.00;99.90
12817;DHT22;6473;51.552;6.716;2024-03-23T04:01:47;5.90;99.90
12817;DHT22;6473;51.552;6.716;2024-03-23T04:04:13;5.80;99.90
12817;DHT22;6473;51.552;6.716;2024-03-23T04:06:43;5.90;99.90
12817;DHT22;6473;51.552;6.716;2024-03-23T04:09:09;6.40;99.90
12817;DHT22;6473;51.552;6.716;2024-03-23T04:11:36;5.80;99.90
12817;DHT22;6473;51.552;6.716;2024-03-23T04:14:02;6.80;99.90
12817;DHT22;6473;51.552;6.716;2024-03-23T04:16:34;7.70;99.90
12817;DHT22;6473;51.552;6.716;2024-03-23T04:19:00;5.90;99.90
12817;DHT22;6473;51.552;6.716;2024-03-23T04:21:27;8.00;99.90
12817;DHT22;6473;51.552;6.716;2024-03-23T04:23:54;5.80;99.90
12817;DHT22;6473;51.552;6.716;2024-03-23T04:26:21;5.90;99.90
12817;DHT22;6473;51.552;6.716;2024-03-23T04:28:48;5.90;99.90
12817;DHT22;6473;51.552;6.716;2024-03-23T04:31:15;8.40;99.90
12817;DHT22;6473;51.552;6.716;2024-03-23T04:33:42;6.00;99.90
12817;DHT22;6473;51.552;6.716;2024-03-23T04:36:08;6.00;99.90
12817;DHT22;6473;51.552;6.716;2024-03-23T04:38:35;6.00;99.90
12817;DHT22;6473;51.552;6.716;2024-03-23T04:41:04;7.70;99.90
12817;DHT22;6473;51.552;6.716;2024-03-23T04:43:31;7.90;99.90
12817;DHT22;6473;51.552;6.716;2024-03-23T04:45:58;8.90;99.90
12817;DHT22;6473;51.552;6.716;2024-03-23T04:48:25;6.00;99.90
12817;DHT22;6473;51.552;6.716;2024-03-23T04:50:55;6.20;99.90
12817;DHT22;6473;51.552;6.716;2024-03-23T04:53:23;6.10;99.90
12817;DHT22;6473;51.552;6.716;2024-03-23T04:55:54;6.00;99.90
12817;DHT22;6473;51.552;6.716;2024-03-23T04:58:22;6.00;99.90
12817;DHT22;6473;51.552;6.716;2024-03-23T05:00:53;6.00;99.90
12817;DHT22;6473;51.552;6.716;2024-03-23T05:03:19;8.40;99.90
12817;DHT22;6473;51.552;6.716;2024-03-23T05:05:47;7.70;99.90
12817;DHT22;6473;51.552;6.716;2024-03-23T05:08:13;8.80;99.90
12817;DHT22;6473;51.552;6.716;2024-03-23T05:10:41;7.90;99.90
12817;DHT22;6473;51.552;6.716;2024-03-23T05:13:07;6.00;99.90
12817;DHT22;6473;51.552;6.716;2024-03-23T05:15:35;5.90;99.90
12817;DHT22;6473;51.552;6.716;2024-03-23T05:18:02;8.20;99.90
12817;DHT22;6473;51.552;6.716;2024-03-23T05:20:29;6.10;99.90
12817;DHT22;6473;51.552;6.716;2024-03-23T05:22:55;6.10;99.90
12817;DHT22;6473;51.552;6.716;2024-03-23T05:25:22;5.90;99.90
12817;DHT22;6473;51.552;6.716;2024-03-23T05:27:48;6.10;99.90
12817;DHT22;6473;51.552;6.716;2024-03-23T05:30:15;6.60;99.90
12817;DHT22;6473;51.552;6.716;2024-03-23T05:32:42;6.00;99.90
12817;DHT22;6473;51.552;6.716;2024-03-23T05:35:10;6.00;99.90
12817;DHT22;6473;51.552;6.716;2024-03-23T05:37:36;5.90;99.90
12817;DHT22;6473;51.552;6.716;2024-03-23T05:40:04;6.00;99.90
12817;DHT22;6473;51.552;6.716;2024-03-23T05:42:30;5.90;99.90
12817;DHT22;6473;51.552;6.716;2024-03-23T05:44:57;5.90;99.90
12817;DHT22;6473;51.552;6.716;2024-03-23T05:47:23;5.90;99.90
12817;DHT22;6473;51.552;6.716;2024-03-23T05:49:51;5.80;99.90
12817;DHT22;6473;51.552;6.716;2024-03-23T05:52:17;5.80;99.90
12817;DHT22;6473;51.552;6.716;2024-03-23T05:54:46;5.80;99.90
12817;DHT22;6473;51.552;6.716;2024-03-23T05:57:12;5.70;99.90
12817;DHT22;6473;51.552;6.716;2024-03-23T06:02:05;5.60;99.90
12817;DHT22;6473;51.552;6.716;2024-03-23T06:04:32;5.60;99.90
12817;DHT22;6473;51.552;6.716;2024-03-23T06:07:00;5.50;99.90
12817;DHT22;6473;51.552;6.716;2024-03-23T06:09:27;5.60;99.90
12817;DHT22;6473;51.552;6.716;2024-03-23T06:11:52;5.50;99.90
12817;DHT22;6473;51.552;6.716;2024-03-23T06:14:19;5.50;99.90
12817;DHT22;6473;51.552;6.716;2024-03-23T06:16:45;5.50;99.90
12817;DHT22;6473;51.552;6.716;2024-03-23T06:19:12;7.80;99.90
12817;DHT22;6473;51.552;6.716;2024-03-23T06:24:06;5.50;99.90
12817;DHT22;6473;51.552;6.716;2024-03-23T06:26:32;5.60;99.90
12817;DHT22;6473;51.552;6.716;2024-03-23T06:28:59;5.60;99.90
12817;DHT22;6473;51.552;6.716;2024-03-23T06:31:25;5.60;99.90
12817;DHT22;6473;51.552;6.716;2024-03-23T06:33:51;5.70;99.90
12817;DHT22;6473;51.552;6.716;2024-03-23T06:36:17;5.80;99.90
12817;DHT22;6473;51.552;6.716;2024-03-23T06:38:45;5.80;99.90
12817;DHT22;6473;51.552;6.716;2024-03-23T06:41:12;5.90;99.90
12817;DHT22;6473;51.552;6.716;2024-03-23T06:46:05;6.00;99.90
12817;DHT22;6473;51.552;6.716;2024-03-23T06:48:32;6.10;99.90
12817;DHT22;6473;51.552;6.716;2024-03-23T06:50:58;7.40;99.90
12817;DHT22;6473;51.552;6.716;2024-03-23T06:53:25;6.80;99.90
12817;DHT22;6473;51.552;6.716;2024-03-23T06:55:52;9.20;99.90
12817;DHT22;6473;51.552;6.716;2024-03-23T06:58:23;7.10;99.90
12817;DHT22;6473;51.552;6.716;2024-03-23T07:00:49;7.30;99.90
12817;DHT22;6473;51.552;6.716;2024-03-23T07:03:17;7.70;99.90
12817;DHT22;6473;51.552;6.716;2024-03-23T07:05:42;8.00;99.90
12817;DHT22;6473;51.552;6.716;2024-03-23T07:08:11;9.70;99.90
12817;DHT22;6473;51.552;6.716;2024-03-23T07:10:39;8.40;99.90
12817;DHT22;6473;51.552;6.716;2024-03-23T07:13:06;8.70;99.90
12817;DHT22;6473;51.552;6.716;2024-03-23T07:15:34;8.80;99.90
12817;DHT22;6473;51.552;6.716;2024-03-23T07:18:00;11.10;99.90
12817;DHT22;6473;51.552;6.716;2024-03-23T07:20:26;9.00;99.90
12817;DHT22;6473;51.552;6.716;2024-03-23T07:22:56;11.10;99.90
12817;DHT22;6473;51.552;6.716;2024-03-23T07:25:21;11.00;99.90
12817;DHT22;6473;51.552;6.716;2024-03-23T07:27:49;9.90;99.90
12817;DHT22;6473;51.552;6.716;2024-03-23T07:30:15;11.30;99.90
12817;DHT22;6473;51.552;6.716;2024-03-23T07:32:45;10.60;99.90
12817;DHT22;6473;51.552;6.716;2024-03-23T07:35:11;10.60;99.90
12817;DHT22;6473;51.552;6.716;2024-03-23T07:37:38;11.10;99.90
12817;DHT22;6473;51.552;6.716;2024-03-23T07:40:05;11.30;99.90
12817;DHT22;6473;51.552;6.716;2024-03-23T07:42:32;11.10;99.90
12817;DHT22;6473;51.552;6.716;2024-03-23T07:44:58;11.10;99.90
12817;DHT22;6473;51.552;6.716;2024-03-23T07:47:25;11.40;97.00
12817;DHT22;6473;51.552;6.716;2024-03-23T07:49:52;12.20;97.80
12817;DHT22;6473;51.552;6.716;2024-03-23T07:52:18;11.80;92.00
12817;DHT22;6473;51.552;6.716;2024-03-23T07:54:44;11.40;88.00
12817;DHT22;6473;51.552;6.716;2024-03-23T07:57:11;11.00;91.90
12817;DHT22;6473;51.552;6.716;2024-03-23T07:59:37;11.40;90.90
12817;DHT22;6473;51.552;6.716;2024-03-23T08:02:04;11.60;80.70
12817;DHT22;6473;51.552;6.716;2024-03-23T08:04:30;12.40;77.20
12817;DHT22;6473;51.552;6.716;2024-03-23T08:06:58;12.00;66.20
12817;DHT22;6473;51.552;6.716;2024-03-23T08:09:24;11.70;61.10
12817;DHT22;6473;51.552;6.716;2024-03-23T08:11:51;11.70;66.10
12817;DHT22;6473;51.552;6.716;2024-03-23T08:14:17;11.70;58.20
12817;DHT22;6473;51.552;6.716;2024-03-23T08:16:44;11.90;57.20
12817;DHT22;6473;51.552;6.716;2024-03-23T08:19:14;13.80;63.40
12817;DHT22;6473;51.552;6.716;2024-03-23T08:21:40;11.40;63.60
12817;DHT22;6473;51.552;6.716;2024-03-23T08:24:08;10.70;70.00
12817;DHT22;6473;51.552;6.716;2024-03-23T08:26:35;12.20;71.40
12817;DHT22;6473;51.552;6.716;2024-03-23T08:29:03;10.30;85.50
12817;DHT22;6473;51.552;6.716;2024-03-23T08:31:30;9.70;92.30
12817;DHT22;6473;51.552;6.716;2024-03-23T08:33:55;9.30;92.90
12817;DHT22;6473;51.552;6.716;2024-03-23T08:36:22;11.30;95.20
12817;DHT22;6473;51.552;6.716;2024-03-23T08:38:49;9.70;93.60
12817;DHT22;6473;51.552;6.716;2024-03-23T08:41:20;9.40;91.90
12817;DHT22;6473;51.552;6.716;2024-03-23T08:43:46;9.70;92.80
12817;DHT22;6473;51.552;6.716;2024-03-23T08:46:15;10.60;95.90
12817;DHT22;6473;51.552;6.716;2024-03-23T08:48:43;9.70;89.00
12817;DHT22;6473;51.552;6.716;2024-03-23T08:51:10;13.10;91.00
12817;DHT22;6473;51.552;6.716;2024-03-23T08:53:38;11.10;83.40
12817;DHT22;6473;51.552;6.716;2024-03-23T08:56:04;9.90;87.50
12817;DHT22;6473;51.552;6.716;2024-03-23T08:58:34;9.70;90.80
12817;DHT22;6473;51.552;6.716;2024-03-23T09:01:04;9.70;92.00
12817;DHT22;6473;51.552;6.716;2024-03-23T09:03:31;9.40;87.20
12817;DHT22;6473;51.552;6.716;2024-03-23T09:05:57;11.40;90.30
12817;DHT22;6473;51.552;6.716;2024-03-23T09:08:24;10.40;91.80
12817;DHT22;6473;51.552;6.716;2024-03-23T09:10:50;10.20;80.60
12817;DHT22;6473;51.552;6.716;2024-03-23T09:13:16;10.50;76.10
12817;DHT22;6473;51.552;6.716;2024-03-23T09:15:47;12.20;75.50
12817;DHT22;6473;51.552;6.716;2024-03-23T09:18:15;10.30;64.80
12817;DHT22;6473;51.552;6.716;2024-03-23T09:20:41;9.90;65.80
12817;DHT22;6473;51.552;6.716;2024-03-23T09:23:08;10.20;76.50
12817;DHT22;6473;51.552;6.716;2024-03-23T09:25:36;11.00;77.60
12817;DHT22;6473;51.552;6.716;2024-03-23T09:28:03;9.50;82.50
12817;DHT22;6473;51.552;6.716;2024-03-23T09:30:29;9.40;81.00
12817;DHT22;6473;51.552;6.716;2024-03-23T09:32:57;9.80;80.40
12817;DHT22;6473;51.552;6.716;2024-03-23T09:35:23;9.80;90.40
12817;DHT22;6473;51.552;6.716;2024-03-23T09:37:50;10.90;78.40
12817;DHT22;6473;51.552;6.716;2024-03-23T09:40:16;10.30;77.30
12817;DHT22;6473;51.552;6.716;2024-03-23T09:42:51;9.30;90.00
12817;DHT22;6473;51.552;6.716;2024-03-23T09:45:18;9.10;90.80
12817;DHT22;6473;51.552;6.716;2024-03-23T09:47:46;9.30;92.60
12817;DHT22;6473;51.552;6.716;2024-03-23T09:50:14;9.80;70.00
12817;DHT22;6473;51.552;6.716;2024-03-23T09:52:41;9.80;68.90
12817;DHT22;6473;51.552;6.716;2024-03-23T09:55:08;10.30;50.20
12817;DHT22;6473;51.552;6.716;2024-03-23T09:57:35;10.80;39.00
12817;DHT22;6473;51.552;6.716;2024-03-23T10:00:01;11.90;30.50
12817;DHT22;6473;51.552;6.716;2024-03-23T10:02:33;10.40;45.90
12817;DHT22;6473;51.552;6.716;2024-03-23T10:04:59;9.70;70.60
12817;DHT22;6473;51.552;6.716;2024-03-23T10:07:27;9.00;90.70
12817;DHT22;6473;51.552;6.716;2024-03-23T10:09:54;8.70;99.90
12817;DHT22;6473;51.552;6.716;2024-03-23T10:12:22;9.30;99.90
12817;DHT22;6473;51.552;6.716;2024-03-23T10:14:48;9.10;99.90
12817;DHT22;6473;51.552;6.716;2024-03-23T10:17:16;11.60;99.90
12817;DHT22;6473;51.552;6.716;2024-03-23T10:19:43;10.20;99.90
12817;DHT22;6473;51.552;6.716;2024-03-23T10:22:13;11.80;99.90
12817;DHT22;6473;51.552;6.716;2024-03-23T10:24:41;11.30;83.00
12817;DHT22;6473;51.552;6.716;2024-03-23T10:27:07;11.40;73.30
12817;DHT22;6473;51.552;6.716;2024-03-23T10:29:33;10.70;44.40
12817;DHT22;6473;51.552;6.716;2024-03-23T10:32:10;10.60;58.90
12817;DHT22;6473;51.552;6.716;2024-03-23T10:34:36;9.90;50.80
12817;DHT22;6473;51.552;6.716;2024-03-23T10:37:04;8.70;75.90
12817;DHT22;6473;51.552;6.716;2024-03-23T10:39:34;8.30;77.70
12817;DHT22;6473;51.552;6.716;2024-03-23T10:42:06;7.80;74.90
12817;DHT22;6473;51.552;6.716;2024-03-23T10:44:33;7.70;82.00
12817;DHT22;6473;51.552;6.716;2024-03-23T10:47:01;7.70;77.10
12817;DHT22;6473;51.552;6.716;2024-03-23T10:49:29;8.40;77.80
12817;DHT22;6473;51.552;6.716;2024-03-23T10:52:00;9.50;54.50
12817;DHT22;6473;51.552;6.716;2024-03-23T10:54:26;9.50;55.00
12817;DHT22;6473;51.552;6.716;2024-03-23T10:57:02;11.00;57.20
12817;DHT22;6473;51.552;6.716;2024-03-23T10:59:31;11.20;46.30
12817;DHT22;6473;51.552;6.716;2024-03-23T11:01:58;12.20;24.60
12817;DHT22;6473;51.552;6.716;2024-03-23T11:04:34;12.50;27.70
12817;DHT22;6473;51.552;6.716;2024-03-23T11:07:28;11.70;1.10
12817;DHT22;6473;51.552;6.716;2024-03-23T11:09:54;14.20;1.00
12817;DHT22;6473;51.552;6.716;2024-03-23T11:12:28;14.00;1.00
12817;DHT22;6473;51.552;6.716;2024-03-23T11:15:01;13.20;1.00
12817;DHT22;6473;51.552;6.716;2024-03-23T11:17:28;13.60;1.00
12817;DHT22;6473;51.552;6.716;2024-03-23T11:19:56;13.90;1.00
12817;DHT22;6473;51.552;6.716;2024-03-23T11:22:39;13.00;1.00
12817;DHT22;6473;51.552;6.716;2024-03-23T11:25:13;14.30;1.00
12817;DHT22;6473;51.552;6.716;2024-03-23T11:27:40;15.60;1.00
12817;DHT22;6473;51.552;6.716;2024-03-23T11:30:14;13.10;1.00
12817;DHT22;6473;51.552;6.716;2024-03-23T11:32:42;13.40;1.00
12817;DHT22;6473;51.552;6.716;2024-03-23T11:35:09;14.30;1.00
12817;DHT22;6473;51.552;6.716;2024-03-23T11:37:37;13.30;1.00
12817;DHT22;6473;51.552;6.716;2024-03-23T11:40:21;13.10;1.00
12817;DHT22;6473;51.552;6.716;2024-03-23T11:42:55;14.20;1.00
12817;DHT22;6473;51.552;6.716;2024-03-23T11:45:23;15.00;1.00
12817;DHT22;6473;51.552;6.716;2024-03-23T11:48:04;13.50;1.00
12817;DHT22;6473;51.552;6.716;2024-03-23T11:50:30;13.00;1.00
12817;DHT22;6473;51.552;6.716;2024-03-23T11:53:08;11.80;7.30
12817;DHT22;6473;51.552;6.716;2024-03-23T11:55:42;12.80;43.80
12817;DHT22;6473;51.552;6.716;2024-03-23T11:58:10;9.60;65.50
12817;DHT22;6473;51.552;6.716;2024-03-23T12:00:37;11.40;67.30
12817;DHT22;6473;51.552;6.716;2024-03-23T12:03:04;10.00;58.80
12817;DHT22;6473;51.552;6.716;2024-03-23T12:05:32;10.60;43.50
12817;DHT22;6473;51.552;6.716;2024-03-23T12:08:18;10.80;29.40
12817;DHT22;6473;51.552;6.716;2024-03-23T12:10:47;10.40;22.30
12817;DHT22;6473;51.552;6.716;2024-03-23T12:13:23;11.20;15.20
12817;DHT22;6473;51.552;6.716;2024-03-23T12:15:51;12.10;1.00
12817;DHT22;6473;51.552;6.716;2024-03-23T12:18:23;12.40;1.00
12817;DHT22;6473;51.552;6.716;2024-03-23T12:20:50;14.50;1.00
12817;DHT22;6473;51.552;6.716;2024-03-23T12:23:17;13.30;1.00
12817;DHT22;6473;51.552;6.716;2024-03-23T12:25:43;13.60;1.00
12817;DHT22;6473;51.552;6.716;2024-03-23T12:28:10;14.40;1.00
12817;DHT22;6473;51.552;6.716;2024-03-23T12:30:38;15.50;1.00
12817;DHT22;6473;51.552;6.716;2024-03-23T12:33:07;15.70;1.00
12817;DHT22;6473;51.552;6.716;2024-03-23T12:35:33;15.20;1.00
12817;DHT22;6473;51.552;6.716;2024-03-23T12:38:00;15.20;1.00
12817;DHT22;6473;51.552;6.716;2024-03-23T12:40:26;16.80;1.00
12817;DHT22;6473;51.552;6.716;2024-03-23T12:42:53;12.10;1.00
12817;DHT22;6473;51.552;6.716;2024-03-23T12:45:20;12.10;1.00
12817;DHT22;6473;51.552;6.716;2024-03-23T12:47:46;10.40;15.10
12817;DHT22;6473;51.552;6.716;2024-03-23T12:50:14;8.90;74.20
12817;DHT22;6473;51.552;6.716;2024-03-23T12:52:40;8.90;77.80
12817;DHT22;6473;51.552;6.716;2024-03-23T12:55:07;8.30;98.20
12817;DHT22;6473;51.552;6.716;2024-03-23T12:57:33;8.00;99.90
12817;DHT22;6473;51.552;6.716;2024-03-23T13:00:00;7.80;99.90
12817;DHT22;6473;51.552;6.716;2024-03-23T13:02:26;7.70;99.90
12817;DHT22;6473;51.552;6.716;2024-03-23T13:04:53;7.40;99.90
12817;DHT22;6473;51.552;6.716;2024-03-23T13:07:21;7.40;99.90
12817;DHT22;6473;51.552;6.716;2024-03-23T13:09:50;7.20;99.90
12817;DHT22;6473;51.552;6.716;2024-03-23T13:12:16;7.20;99.90
12817;DHT22;6473;51.552;6.716;2024-03-23T13:14:44;7.10;99.90
12817;DHT22;6473;51.552;6.716;2024-03-23T13:17:10;7.20;99.90
12817;DHT22;6473;51.552;6.716;2024-03-23T13:19:37;7.90;99.90
12817;DHT22;6473;51.552;6.716;2024-03-23T13:22:03;10.60;99.90
12817;DHT22;6473;51.552;6.716;2024-03-23T13:24:32;10.00;99.90
12817;DHT22;6473;51.552;6.716;2024-03-23T13:26:58;11.40;94.90
12817;DHT22;6473;51.552;6.716;2024-03-23T13:29:25;9.00;98.10
12817;DHT22;6473;51.552;6.716;2024-03-23T13:31:51;9.40;98.30
12817;DHT22;6473;51.552;6.716;2024-03-23T13:34:19;9.50;99.90
12817;DHT22;6473;51.552;6.716;2024-03-23T13:36:45;10.60;91.80
12817;DHT22;6473;51.552;6.716;2024-03-23T13:39:14;12.30;37.60
12817;DHT22;6473;51.552;6.716;2024-03-23T13:41:43;17.00;15.30
12817;DHT22;6473;51.552;6.716;2024-03-23T13:44:10;16.80;1.00
12817;DHT22;6473;51.552;6.716;2024-03-23T13:46:36;15.00;1.00
12817;DHT22;6473;51.552;6.716;2024-03-23T13:49:04;15.00;1.00
12817;DHT22;6473;51.552;6.716;2024-03-23T13:51:30;14.40;1.00
12817;DHT22;6473;51.552;6.716;2024-03-23T13:53:57;13.80;1.00
12817;DHT22;6473;51.552;6.716;2024-03-23T13:56:23;13.60;1.00
12817;DHT22;6473;51.552;6.716;2024-03-23T13:58:51;13.70;1.00
12817;DHT22;6473;51.552;6.716;2024-03-23T14:01:18;15.40;1.00
12817;DHT22;6473;51.552;6.716;2024-03-23T14:03:45;16.00;1.00
12817;DHT22;6473;51.552;6.716;2024-03-23T14:06:11;13.60;1.00
12817;DHT22;6473;51.552;6.716;2024-03-23T14:08:38;13.50;1.00
12817;DHT22;6473;51.552;6.716;2024-03-23T14:11:05;13.20;1.00
12817;DHT22;6473;51.552;6.716;2024-03-23T14:13:32;13.30;1.00
12817;DHT22;6473;51.552;6.716;2024-03-23T14:15:59;14.10;1.00
12817;DHT22;6473;51.552;6.716;2024-03-23T14:18:26;15.00;1.00
12817;DHT22;6473;51.552;6.716;2024-03-23T14:20:55;15.20;1.00
12817;DHT22;6473;51.552;6.716;2024-03-23T14:23:24;12.00;1.00
12817;DHT22;6473;51.552;6.716;2024-03-23T14:25:49;12.10;1.00
12817;DHT22;6473;51.552;6.716;2024-03-23T14:28:16;14.30;1.00
12817;DHT22;6473;51.552;6.716;2024-03-23T14:30:42;13.80;1.00
12817;DHT22;6473;51.552;6.716;2024-03-23T14:33:11;13.60;1.00
12817;DHT22;6473;51.552;6.716;2024-03-23T14:35:37;13.10;1.00
12817;DHT22;6473;51.552;6.716;2024-03-23T14:38:04;13.10;1.00
12817;DHT22;6473;51.552;6.716;2024-03-23T14:40:30;13.20;1.00
12817;DHT22;6473;51.552;6.716;2024-03-23T14:42:56;13.60;1.00
12817;DHT22;6473;51.552;6.716;2024-03-23T14:45:22;13.70;1.00
12817;DHT22;6473;51.552;6.716;2024-03-23T14:47:50;12.80;1.00
12817;DHT22;6473;51.552;6.716;2024-03-23T14:50:17;13.90;1.00
12817;DHT22;6473;51.552;6.716;2024-03-23T14:52:44;15.00;1.00
12817;DHT22;6473;51.552;6.716;2024-03-23T14:55:11;11.60;1.00
12817;DHT22;6473;51.552;6.716;2024-03-23T14:57:38;11.60;1.00
12817;DHT22;6473;51.552;6.716;2024-03-23T15:00:07;11.40;1.00
12817;DHT22;6473;51.552;6.716;2024-03-23T15:02:36;11.50;1.00
12817;DHT22;6473;51.552;6.716;2024-03-23T15:05:02;12.80;1.00
12817;DHT22;6473;51.552;6.716;2024-03-23T15:07:31;12.50;1.00
12817;DHT22;6473;51.552;6.716;2024-03-23T15:09:57;15.90;1.00
12817;DHT22;6473;51.552;6.716;2024-03-23T15:12:23;13.10;1.00
12817;DHT22;6473;51.552;6.716;2024-03-23T15:14:49;15.50;1.00
12817;DHT22;6473;51.552;6.716;2024-03-23T15:17:16;12.30;1.00
12817;DHT22;6473;51.552;6.716;2024-03-23T15:19:42;12.70;1.00
12817;DHT22;6473;51.552;6.716;2024-03-23T15:22:09;12.90;1.00
12817;DHT22;6473;51.552;6.716;2024-03-23T15:24:37;13.80;1.00
12817;DHT22;6473;51.552;6.716;2024-03-23T15:27:04;11.40;1.00
12817;DHT22;6473;51.552;6.716;2024-03-23T15:29:30;11.40;1.00
12817;DHT22;6473;51.552;6.716;2024-03-23T15:31:57;13.90;1.00
12817;DHT22;6473;51.552;6.716;2024-03-23T15:34:23;13.60;1.00
12817;DHT22;6473;51.552;6.716;2024-03-23T15:36:50;11.90;1.00
12817;DHT22;6473;51.552;6.716;2024-03-23T15:39:16;13.30;1.00
12817;DHT22;6473;51.552;6.716;2024-03-23T15:41:47;11.50;1.00
12817;DHT22;6473;51.552;6.716;2024-03-23T15:44:13;10.40;1.00
12817;DHT22;6473;51.552;6.716;2024-03-23T15:46:41;10.40;5.20
12817;DHT22;6473;51.552;6.716;2024-03-23T15:49:07;11.00;20.40
12817;DHT22;6473;51.552;6.716;2024-03-23T15:51:34;10.70;1.00
12817;DHT22;6473;51.552;6.716;2024-03-23T15:54:02;10.00;1.00
12817;DHT22;6473;51.552;6.716;2024-03-23T15:58:57;9.20;15.60
12817;DHT22;6473;51.552;6.716;2024-03-23T16:01:31;9.00;21.00
12817;DHT22;6473;51.552;6.716;2024-03-23T16:03:59;8.50;22.10
12817;DHT22;6473;51.552;6.716;2024-03-23T16:06:25;8.60;30.70
12817;DHT22;6473;51.552;6.716;2024-03-23T16:08:51;8.50;35.40
12817;DHT22;6473;51.552;6.716;2024-03-23T16:11:18;9.50;36.30
12817;DHT22;6473;51.552;6.716;2024-03-23T16:13:45;8.40;46.80
12817;DHT22;6473;51.552;6.716;2024-03-23T16:16:13;8.20;46.60
12817;DHT22;6473;51.552;6.716;2024-03-23T16:18:39;8.20;47.90
12817;DHT22;6473;51.552;6.716;2024-03-23T16:21:06;8.10;52.40
12817;DHT22;6473;51.552;6.716;2024-03-23T16:23:33;8.20;52.90
12817;DHT22;6473;51.552;6.716;2024-03-23T16:26:00;8.10;55.50
12817;DHT22;6473;51.552;6.716;2024-03-23T16:28:29;8.10;90.60
12817;DHT22;6473;51.552;6.716;2024-03-23T16:30:56;7.60;99.90
12817;DHT22;6473;51.552;6.716;2024-03-23T16:33:24;7.30;99.90
12817;DHT22;6473;51.552;6.716;2024-03-23T16:35:59;6.80;99.90
12817;DHT22;6473;51.552;6.716;2024-03-23T16:38:25;6.70;99.90
12817;DHT22;6473;51.552;6.716;2024-03-23T16:40:56;6.50;99.90
12817;DHT22;6473;51.552;6.716;2024-03-23T16:43:23;6.30;99.90
12817;DHT22;6473;51.552;6.716;2024-03-23T16:45:54;6.10;99.90
12817;DHT22;6473;51.552;6.716;2024-03-23T16:48:21;6.10;99.90
12817;DHT22;6473;51.552;6.716;2024-03-23T16:50:49;5.90;99.90
12817;DHT22;6473;51.552;6.716;2024-03-23T16:53:16;5.90;99.90
12817;DHT22;6473;51.552;6.716;2024-03-23T16:58:10;5.80;99.90
12817;DHT22;6473;51.552;6.716;2024-03-23T17:00:37;5.80;99.90
12817;DHT22;6473;51.552;6.716;2024-03-23T17:03:03;5.80;99.90
12817;DHT22;6473;51.552;6.716;2024-03-23T17:05:36;5.90;99.90